Time;durP1;ratioP1;P1;durP2;ratioP2;P2;SDS_P1;SDS_P2;PMS_P1;PMS_P2;Temp;Humidity;BMP_temperature;BMP_pressure;BME280_temperature;BME280_humidity;BME280_pressure;Samples;Min_cycle;Max_cycle;Signal;HPM_P1;HPM_P2
2022/04/02 00:00:02;;;;;;;3.20;1.20;;;4.60;75.70;;;;;;5052222;28;20086;-80
2022/04/02 00:02:28;;;;;;;4.25;1.40;;;4.60;75.80;;;;;;5052786;28;20365;-80
2022/04/02 00:04:54;;;;;;;4.00;1.65;;;4.40;75.70;;;;;;5052181;28;20116;-80
2022/04/02 00:07:20;;;;;;;2.35;1.30;;;4.40;76.30;;;;;;5052043;28;20053;-81
2022/04/02 00:09:46;;;;;;;3.03;1.33;;;4.40;76.50;;;;;;5051981;28;20049;-81
2022/04/02 00:12:12;;;;;;;3.58;1.55;;;4.50;76.60;;;;;;5051873;28;20094;-80
2022/04/02 00:14:37;;;;;;;2.63;1.10;;;4.70;76.40;;;;;;5054975;28;20491;-80
2022/04/02 00:17:03;;;;;;;3.53;1.52;;;4.80;75.60;;;;;;5055621;28;20472;-80
2022/04/02 00:19:30;;;;;;;10.05;1.88;;;4.70;76.30;;;;;;5055934;28;20102;-80
2022/04/02 00:21:56;;;;;;;3.55;1.77;;;4.50;75.80;;;;;;5055269;28;20487;-80
2022/04/02 00:24:22;;;;;;;3.33;1.30;;;4.50;75.90;;;;;;5055572;28;20029;-80
2022/04/02 00:26:47;;;;;;;5.25;1.42;;;4.60;76.20;;;;;;5055115;28;20116;-80
2022/04/02 00:29:13;;;;;;;2.28;1.27;;;4.50;76.30;;;;;;5055556;28;20029;-80
2022/04/02 00:31:40;;;;;;;4.57;1.60;;;4.50;76.50;;;;;;5055336;28;20043;-80
2022/04/02 00:34:06;;;;;;;1.58;1.02;;;4.50;76.00;;;;;;5055288;28;20045;-82
2022/04/02 00:36:37;;;;;;;3.40;1.38;;;4.50;76.70;;;;;;5055685;28;20063;-83
2022/04/02 00:39:04;;;;;;;2.50;1.20;;;4.60;76.30;;;;;;5055055;28;20496;-82
2022/04/02 00:41:29;;;;;;;4.60;1.33;;;4.70;76.30;;;;;;5054937;28;20032;-82
2022/04/02 00:44:06;;;;;;;3.38;1.10;;;4.90;76.10;;;;;;5055076;28;20033;-82
2022/04/02 00:46:31;;;;;;;4.72;1.70;;;4.90;75.90;;;;;;5055153;28;20032;-82
2022/04/02 00:48:57;;;;;;;2.63;1.20;;;4.80;75.20;;;;;;5054729;28;20021;-82
2022/04/02 00:51:23;;;;;;;3.47;1.20;;;4.80;75.40;;;;;;5055176;28;20033;-82
2022/04/02 00:53:51;;;;;;;3.40;1.50;;;4.70;75.40;;;;;;5055070;28;20044;-81
2022/04/02 00:56:17;;;;;;;3.15;0.98;;;4.70;75.30;;;;;;5055244;28;20101;-79
2022/04/02 00:58:44;;;;;;;3.38;1.50;;;4.60;75.70;;;;;;5055217;28;20033;-79
2022/04/02 01:01:09;;;;;;;3.10;1.30;;;4.60;75.80;;;;;;5054896;28;20029;-79
2022/04/02 01:03:36;;;;;;;3.83;1.20;;;4.50;75.60;;;;;;5054075;28;20067;-79
2022/04/02 01:06:02;;;;;;;3.75;1.38;;;4.40;76.30;;;;;;5054655;28;20032;-78
2022/04/02 01:08:27;;;;;;;4.03;1.52;;;4.40;76.70;;;;;;5054525;28;20032;-78
2022/04/02 01:10:56;;;;;;;3.13;1.30;;;4.50;76.60;;;;;;5054651;28;20441;-78
2022/04/02 01:13:23;;;;;;;5.72;1.70;;;4.40;76.40;;;;;;5054037;28;20435;-78
2022/04/02 01:15:48;;;;;;;2.97;1.35;;;4.30;76.10;;;;;;5054783;28;20033;-79
2022/04/02 01:18:14;;;;;;;2.40;1.20;;;4.30;77.70;;;;;;5054567;28;20384;-79
2022/04/02 01:20:40;;;;;;;4.05;1.27;;;4.30;76.90;;;;;;5054196;28;20055;-79
2022/04/02 01:23:05;;;;;;;3.78;1.20;;;4.50;76.70;;;;;;5054234;28;20033;-79
2022/04/02 01:25:37;;;;;;;3.22;1.25;;;4.40;76.10;;;;;;5052722;28;20029;-79
2022/04/02 01:28:04;;;;;;;3.60;1.30;;;4.40;78.00;;;;;;5054312;28;20372;-79
2022/04/02 01:30:30;;;;;;;6.00;1.50;;;4.40;76.70;;;;;;5053982;28;20036;-79
2022/04/02 01:32:56;;;;;;;3.00;1.10;;;4.30;77.70;;;;;;5054142;28;20045;-79
2022/04/02 01:35:22;;;;;;;5.15;1.50;;;4.40;77.30;;;;;;5054435;28;20021;-79
2022/04/02 01:37:49;;;;;;;2.85;1.35;;;4.40;75.70;;;;;;5054734;28;20033;-79
2022/04/02 01:40:15;;;;;;;2.67;0.98;;;4.40;77.20;;;;;;5053741;28;20475;-78
2022/04/02 01:42:41;;;;;;;2.75;1.35;;;4.30;76.30;;;;;;5054621;28;20028;-79
2022/04/02 01:45:08;;;;;;;3.78;1.20;;;4.40;76.50;;;;;;5053982;28;20017;-79
2022/04/02 01:47:33;;;;;;;5.28;1.70;;;4.50;76.20;;;;;;5053046;28;20051;-79
2022/04/02 01:49:59;;;;;;;7.25;2.33;;;4.40;75.90;;;;;;5053918;28;20473;-79
2022/04/02 01:52:25;;;;;;;2.65;1.17;;;4.40;76.10;;;;;;5053856;28;20037;-79
2022/04/02 01:54:53;;;;;;;4.38;1.40;;;4.40;76.10;;;;;;5053937;28;20033;-79
2022/04/02 01:57:21;;;;;;;2.30;1.10;;;4.50;76.80;;;;;;5053558;28;20439;-79
2022/04/02 01:59:49;;;;;;;2.85;1.13;;;4.60;76.00;;;;;;5054108;28;20029;-79
2022/04/02 02:02:16;;;;;;;5.10;1.58;;;4.50;75.90;;;;;;5053532;28;20032;-79
2022/04/02 02:04:42;;;;;;;3.38;1.42;;;4.60;76.20;;;;;;5053794;28;20036;-79
2022/04/02 02:07:07;;;;;;;4.28;1.10;;;4.60;75.90;;;;;;5054049;28;20029;-79
2022/04/02 02:09:34;;;;;;;4.85;1.05;;;4.70;76.80;;;;;;5053376;28;20068;-79
2022/04/02 02:12:01;;;;;;;2.00;1.17;;;4.70;76.10;;;;;;5053745;28;20067;-79
2022/04/02 02:14:26;;;;;;;2.20;1.40;;;4.70;75.50;;;;;;5053559;28;20503;-79
2022/04/02 02:16:52;;;;;;;3.40;1.10;;;4.70;75.70;;;;;;5053645;28;20021;-79
2022/04/02 02:19:21;;;;;;;3.83;1.58;;;4.50;75.90;;;;;;5052991;28;20472;-79
2022/04/02 02:21:46;;;;;;;3.15;1.08;;;4.40;77.30;;;;;;5053838;28;20103;-79
2022/04/02 02:24:12;;;;;;;2.20;1.00;;;4.40;76.90;;;;;;5053170;28;20053;-81
2022/04/02 02:26:37;;;;;;;4.20;1.17;;;4.40;77.10;;;;;;5053421;28;20503;-81
2022/04/02 02:29:05;;;;;;;2.63;1.38;;;4.40;76.80;;;;;;5053164;28;20024;-81
2022/04/02 02:31:31;;;;;;;3.45;1.33;;;4.30;77.60;;;;;;5053508;28;20079;-81
2022/04/02 02:36:41;;;;;;;4.55;1.50;;;4.10;77.50;;;;;;5053498;28;20126;-81
2022/04/02 02:39:06;;;;;;;3.25;1.23;;;4.20;77.80;;;;;;5052726;28;20048;-81
2022/04/02 02:41:32;;;;;;;3.95;0.98;;;4.20;77.60;;;;;;5053146;28;20112;-81
2022/04/02 02:43:58;;;;;;;2.60;1.33;;;4.20;77.60;;;;;;5053185;28;20032;-81
2022/04/02 02:46:26;;;;;;;2.95;1.33;;;4.30;77.50;;;;;;5053199;28;20033;-81
2022/04/02 02:48:51;;;;;;;1.48;0.77;;;4.40;77.50;;;;;;5052797;28;20020;-80
2022/04/02 02:51:17;;;;;;;3.17;1.15;;;4.50;77.10;;;;;;5052867;28;20036;-80
2022/04/02 02:53:46;;;;;;;2.85;1.00;;;4.30;76.80;;;;;;5053212;28;20037;-80
2022/04/02 02:56:11;;;;;;;6.22;1.58;;;4.20;77.50;;;;;;5053135;28;20407;-80
2022/04/02 02:58:37;;;;;;;1.90;1.27;;;4.20;77.30;;;;;;5053047;28;20103;-80
2022/04/02 03:01:05;;;;;;;4.53;1.50;;;4.30;77.20;;;;;;5053025;28;20065;-80
2022/04/02 03:03:31;;;;;;;2.30;1.20;;;4.30;77.30;;;;;;5052904;28;20032;-80
2022/04/02 03:05:57;;;;;;;2.63;1.10;;;4.20;77.40;;;;;;5053315;28;20037;-80
2022/04/02 03:08:23;;;;;;;4.28;1.23;;;4.30;78.30;;;;;;5053108;28;20383;-80
2022/04/02 03:10:48;;;;;;;4.70;1.27;;;4.50;78.60;;;;;;5052812;28;20045;-80
2022/04/02 03:13:14;;;;;;;2.65;0.90;;;4.40;77.00;;;;;;5052664;28;20041;-80
2022/04/02 03:15:40;;;;;;;4.03;1.15;;;4.40;77.60;;;;;;5053027;28;20025;-80
2022/04/02 03:18:08;;;;;;;3.05;1.10;;;4.40;77.90;;;;;;5052902;28;20040;-81
2022/04/02 03:20:35;;;;;;;3.55;1.58;;;4.50;77.70;;;;;;5052459;28;20452;-81
2022/04/02 03:23:02;;;;;;;5.03;1.00;;;4.50;77.40;;;;;;5052291;28;20059;-81
2022/04/02 03:25:28;;;;;;;3.03;1.70;;;4.60;78.10;;;;;;5052852;28;20167;-79
2022/04/02 03:27:54;;;;;;;6.05;1.60;;;4.60;77.70;;;;;;5053199;28;20384;-80
2022/04/02 03:30:22;;;;;;;5.65;1.17;;;4.50;76.70;;;;;;5053002;28;20039;-80
2022/04/02 03:32:48;;;;;;;3.88;1.20;;;4.40;77.50;;;;;;5052907;28;20063;-80
2022/04/02 03:35:14;;;;;;;3.45;1.40;;;4.30;78.10;;;;;;5052421;28;20037;-80
2022/04/02 03:37:42;;;;;;;4.05;1.60;;;4.20;78.40;;;;;;5052888;28;20032;-81
2022/04/02 03:40:16;;;;;;;3.45;1.40;;;4.20;79.00;;;;;;5052603;28;20041;-77
2022/04/02 03:42:44;;;;;;;3.42;1.23;;;4.20;78.60;;;;;;5034904;28;20034;-78
2022/04/02 03:45:12;;;;;;;3.40;1.42;;;4.20;79.20;;;;;;5053288;28;20063;-79
2022/04/02 03:47:38;;;;;;;3.83;1.20;;;4.10;79.10;;;;;;5052862;28;20037;-79
2022/04/02 03:50:05;;;;;;;3.42;1.65;;;4.10;79.40;;;;;;5056427;28;20033;-78
2022/04/02 03:52:31;;;;;;;3.15;1.05;;;4.10;79.70;;;;;;5056709;28;20037;-78
2022/04/02 03:54:56;;;;;;;4.40;1.50;;;4.00;79.60;;;;;;5056466;28;20040;-78
2022/04/02 03:57:22;;;;;;;7.25;1.50;;;4.00;79.60;;;;;;5056482;28;20055;-79
2022/04/02 03:59:48;;;;;;;2.80;1.33;;;3.90;80.00;;;;;;5056287;28;20108;-79
2022/04/02 04:02:13;;;;;;;5.22;1.50;;;3.80;80.10;;;;;;5055997;28;20025;-80
2022/04/02 04:04:40;;;;;;;4.05;1.70;;;3.90;80.90;;;;;;5056433;28;20078;-81
2022/04/02 04:07:07;;;;;;;3.67;1.30;;;3.90;80.30;;;;;;5056342;28;20040;-79
2022/04/02 04:09:33;;;;;;;4.03;1.40;;;3.90;80.10;;;;;;5055859;28;20037;-79
2022/04/02 04:11:59;;;;;;;3.45;1.75;;;3.80;79.90;;;;;;5056191;28;20167;-78
2022/04/02 04:14:25;;;;;;;3.95;1.42;;;3.80;80.40;;;;;;5055758;28;20045;-78
2022/04/02 04:16:53;;;;;;;5.63;1.10;;;3.70;80.40;;;;;;5055924;28;20087;-78
2022/04/02 04:19:21;;;;;;;4.22;1.20;;;3.80;80.40;;;;;;5056064;28;20033;-78
2022/04/02 04:21:47;;;;;;;2.40;1.30;;;3.60;80.50;;;;;;5055967;28;20033;-79
2022/04/02 04:24:14;;;;;;;1.95;1.10;;;3.50;81.90;;;;;;5055601;28;20028;-78
2022/04/02 04:26:40;;;;;;;3.92;1.42;;;3.60;81.90;;;;;;5055922;28;20068;-79
2022/04/02 04:29:06;;;;;;;1.90;1.00;;;3.80;81.60;;;;;;5055474;28;20365;-79
2022/04/02 04:31:31;;;;;;;4.55;1.50;;;3.90;81.10;;;;;;5055650;28;20036;-79
2022/04/02 04:33:57;;;;;;;3.55;1.17;;;4.00;80.00;;;;;;5055629;28;20469;-79
2022/04/02 04:36:24;;;;;;;2.97;1.55;;;3.90;80.60;;;;;;5055161;28;20036;-79
2022/04/02 04:38:50;;;;;;;4.60;1.17;;;4.10;80.30;;;;;;5055255;28;20029;-79
2022/04/02 04:41:19;;;;;;;3.80;1.50;;;4.10;80.70;;;;;;5055255;28;20032;-79
2022/04/02 04:43:49;;;;;;;3.55;1.52;;;4.10;79.50;;;;;;5055197;28;20508;-79
2022/04/02 04:46:19;;;;;;;2.83;1.30;;;4.00;79.70;;;;;;5045011;28;20029;-79
2022/04/02 04:48:45;;;;;;;2.03;1.52;;;3.90;80.10;;;;;;5055126;28;20104;-79
2022/04/02 04:51:12;;;;;;;3.20;1.60;;;4.00;80.30;;;;;;5055364;28;20046;-78
2022/04/02 04:53:38;;;;;;;4.40;1.40;;;4.00;80.40;;;;;;5054696;28;20040;-78
2022/04/02 04:56:04;;;;;;;2.15;1.30;;;4.00;80.40;;;;;;5054793;28;20033;-78
2022/04/02 04:58:30;;;;;;;4.82;1.17;;;4.00;80.90;;;;;;5054797;28;20036;-79
2022/04/02 05:00:57;;;;;;;3.03;1.30;;;4.10;81.10;;;;;;5054606;28;20431;-78
2022/04/02 05:03:26;;;;;;;5.85;1.90;;;4.10;80.40;;;;;;5054862;28;20116;-78
2022/04/02 05:05:53;;;;;;;3.45;1.40;;;4.10;80.50;;;;;;5054609;28;20021;-78
2022/04/02 05:08:23;;;;;;;4.40;1.30;;;4.10;80.30;;;;;;5054493;28;20072;-78
2022/04/02 05:10:49;;;;;;;5.90;1.55;;;4.10;81.00;;;;;;5054195;28;20040;-78
2022/04/02 05:13:15;;;;;;;4.28;1.00;;;4.20;80.30;;;;;;5053938;28;20108;-78
2022/04/02 05:15:44;;;;;;;5.75;1.40;;;4.20;80.50;;;;;;5054943;28;20436;-78
2022/04/02 05:18:11;;;;;;;1.63;1.00;;;4.30;80.20;;;;;;5054036;28;20040;-78
2022/04/02 05:20:41;;;;;;;3.15;1.38;;;4.20;80.00;;;;;;5054261;28;20032;-78
2022/04/02 05:23:08;;;;;;;4.80;2.20;;;4.30;80.30;;;;;;5054432;28;20059;-78
2022/04/02 05:25:34;;;;;;;3.53;1.20;;;4.40;80.60;;;;;;5054209;28;20029;-78
2022/04/02 05:28:02;;;;;;;4.63;1.65;;;4.30;80.00;;;;;;5054397;28;20059;-78
2022/04/02 05:30:28;;;;;;;5.78;1.73;;;4.20;80.20;;;;;;5054542;28;20114;-78
2022/04/02 05:32:55;;;;;;;2.50;1.45;;;4.00;81.00;;;;;;5053888;28;20074;-79
2022/04/02 05:35:21;;;;;;;2.72;1.58;;;3.80;82.00;;;;;;5054116;28;20463;-78
2022/04/02 05:37:46;;;;;;;4.18;1.55;;;3.80;82.90;;;;;;5054650;28;20049;-78
2022/04/02 05:40:13;;;;;;;3.90;1.88;;;3.90;82.90;;;;;;5052874;28;20518;-78
2022/04/02 05:42:39;;;;;;;2.35;1.38;;;4.00;82.30;;;;;;5054022;28;20027;-79
2022/04/02 05:45:05;;;;;;;4.53;1.40;;;3.90;82.70;;;;;;5054298;28;20029;-78
2022/04/02 05:47:47;;;;;;;2.95;1.40;;;3.80;83.10;;;;;;5054203;28;20381;-79
2022/04/02 05:50:14;;;;;;;3.00;1.67;;;3.70;84.20;;;;;;5053172;28;20025;-78
2022/04/02 05:52:40;;;;;;;3.95;1.70;;;3.60;84.10;;;;;;5054035;28;20112;-78
2022/04/02 05:55:07;;;;;;;3.70;1.77;;;3.70;84.90;;;;;;5052924;28;20540;-78
2022/04/02 05:57:34;;;;;;;2.85;1.70;;;3.80;84.80;;;;;;5039204;28;20412;-79
2022/04/02 06:00:00;;;;;;;4.80;1.75;;;4.00;84.10;;;;;;5053217;28;20033;-78
2022/04/02 06:02:27;;;;;;;3.75;1.77;;;4.00;84.10;;;;;;5053920;28;20096;-77
2022/04/02 06:04:52;;;;;;;6.30;1.85;;;4.00;84.00;;;;;;5053481;28;20033;-78
2022/04/02 06:07:18;;;;;;;4.18;1.67;;;4.00;83.60;;;;;;5053774;28;20029;-79
2022/04/02 06:09:43;;;;;;;8.15;1.92;;;3.90;83.90;;;;;;5053206;28;20045;-79
2022/04/02 06:12:09;;;;;;;4.32;2.05;;;3.80;84.20;;;;;;5053061;28;20060;-80
2022/04/02 06:14:35;;;;;;;5.00;1.98;;;3.80;84.30;;;;;;5052604;28;20049;-79
2022/04/02 06:17:00;;;;;;;3.70;1.60;;;3.70;84.60;;;;;;5053483;28;20017;-79
2022/04/02 06:19:26;;;;;;;6.93;2.28;;;3.70;85.50;;;;;;5046624;28;20025;-79
2022/04/02 06:21:51;;;;;;;3.38;1.70;;;3.70;85.20;;;;;;5053002;28;20025;-80
2022/04/02 06:24:17;;;;;;;4.45;1.88;;;3.80;86.30;;;;;;5052772;28;20112;-78
2022/04/02 06:26:42;;;;;;;4.63;1.65;;;3.90;86.00;;;;;;5053377;28;20028;-79
2022/04/02 06:29:08;;;;;;;5.13;1.80;;;3.90;86.20;;;;;;5051721;28;20546;-85
2022/04/02 06:31:34;;;;;;;6.68;2.05;;;3.80;85.60;;;;;;5052778;28;20490;-85
2022/04/02 06:33:59;;;;;;;4.70;1.75;;;3.80;87.20;;;;;;5051763;28;20845;-82
2022/04/02 06:36:25;;;;;;;5.82;1.77;;;3.90;86.50;;;;;;5051938;28;20488;-80
2022/04/02 06:38:50;;;;;;;8.35;1.70;;;3.90;86.40;;;;;;5052825;28;20357;-79
2022/04/02 06:41:16;;;;;;;5.93;2.00;;;4.00;88.00;;;;;;5053079;28;20131;-78
2022/04/02 06:43:41;;;;;;;5.63;1.90;;;4.20;87.10;;;;;;5052747;28;20488;-78
2022/04/02 06:46:07;;;;;;;4.35;2.15;;;4.20;86.10;;;;;;5053221;28;20036;-79
2022/04/02 06:48:33;;;;;;;3.67;1.75;;;4.30;86.50;;;;;;5053002;28;20051;-79
2022/04/02 06:51:01;;;;;;;3.75;1.92;;;4.40;86.50;;;;;;5051393;28;20025;-81
2022/04/02 06:53:26;;;;;;;4.50;2.03;;;4.50;85.20;;;;;;5052435;28;20029;-81
2022/04/02 06:55:52;;;;;;;2.30;1.75;;;4.40;85.30;;;;;;5052479;28;20063;-79
2022/04/02 06:58:35;;;;;;;5.40;1.67;;;4.40;86.10;;;;;;5052409;28;20022;-79
2022/04/02 07:01:01;;;;;;;7.40;1.98;;;4.30;86.30;;;;;;5052162;28;20054;-80
2022/04/02 07:03:27;;;;;;;8.07;1.70;;;4.50;87.00;;;;;;5052135;28;20052;-79
2022/04/02 07:05:52;;;;;;;5.63;2.40;;;4.60;86.20;;;;;;5052347;28;20147;-80
2022/04/02 07:08:18;;;;;;;4.15;2.08;;;4.60;85.20;;;;;;5051820;28;20044;-77
2022/04/02 07:10:44;;;;;;;5.28;1.88;;;4.30;86.80;;;;;;5051999;28;20045;-79
2022/04/02 07:13:09;;;;;;;5.18;1.92;;;4.20;87.50;;;;;;5052021;28;20033;-81
2022/04/02 07:15:35;;;;;;;3.40;2.00;;;4.10;87.90;;;;;;5052083;28;20043;-76
2022/04/02 07:18:06;;;;;;;5.60;2.50;;;4.20;87.80;;;;;;5052249;28;20029;-78
2022/04/02 07:20:35;;;;;;;6.03;2.30;;;4.30;88.10;;;;;;5051027;28;20025;-79
2022/04/02 07:23:02;;;;;;;7.95;2.30;;;4.10;87.80;;;;;;5054654;28;20044;-77
2022/04/02 07:25:35;;;;;;;2.58;1.85;;;4.20;89.30;;;;;;5056160;28;20131;-79
2022/04/02 07:28:01;;;;;;;7.88;1.92;;;4.30;89.10;;;;;;5056618;28;20392;-79
2022/04/02 07:30:27;;;;;;;6.35;2.30;;;4.40;90.10;;;;;;5056921;28;20025;-79
2022/04/02 07:32:52;;;;;;;4.63;2.20;;;4.60;88.50;;;;;;5056465;28;20051;-83
2022/04/02 07:35:19;;;;;;;5.13;2.17;;;4.70;88.20;;;;;;5056262;28;20408;-78
2022/04/02 07:38:09;;;;;;;4.95;1.80;;;4.80;87.40;;;;;;5056491;28;20025;-75
2022/04/02 07:40:44;;;;;;;5.40;2.35;;;4.90;88.00;;;;;;5055164;28;20542;-78
2022/04/02 07:43:31;;;;;;;4.35;2.45;;;5.00;86.10;;;;;;5055949;28;20056;-78
2022/04/02 07:46:08;;;;;;;5.32;2.20;;;4.90;87.10;;;;;;5055784;28;20049;-80
2022/04/02 07:48:39;;;;;;;5.53;2.33;;;4.90;87.20;;;;;;5055534;28;20025;-82
2022/04/02 07:51:12;;;;;;;6.60;2.65;;;5.00;87.30;;;;;;5054163;28;20103;-81
2022/04/02 07:53:44;;;;;;;4.15;2.10;;;5.10;86.90;;;;;;5055529;28;20081;-78
2022/04/02 07:56:13;;;;;;;6.35;2.60;;;5.20;85.90;;;;;;5055913;28;20032;-79
2022/04/02 07:58:44;;;;;;;6.50;2.13;;;5.20;86.50;;;;;;5055291;28;20472;-77
2022/04/02 08:01:12;;;;;;;6.20;2.67;;;5.20;86.30;;;;;;5055565;28;20048;-80
2022/04/02 08:03:44;;;;;;;7.00;2.17;;;5.20;86.50;;;;;;5055214;28;20057;-80
2022/04/02 08:06:11;;;;;;;6.95;2.38;;;5.10;85.60;;;;;;5055365;28;20039;-81
2022/04/02 08:08:37;;;;;;;12.93;2.15;;;4.90;86.50;;;;;;5055016;28;20499;-80
2022/04/02 08:11:05;;;;;;;5.72;2.45;;;4.80;87.60;;;;;;5054828;28;20077;-80
2022/04/02 08:13:32;;;;;;;4.70;2.55;;;4.90;87.60;;;;;;5055665;28;20033;-78
2022/04/02 08:15:59;;;;;;;9.60;2.88;;;5.00;88.10;;;;;;5055716;28;20120;-79
2022/04/02 08:18:26;;;;;;;10.20;2.47;;;5.10;87.70;;;;;;5055930;28;20021;-77
2022/04/02 08:20:52;;;;;;;4.93;2.80;;;5.30;89.10;;;;;;5055513;28;20024;-78
2022/04/02 08:23:18;;;;;;;5.65;2.35;;;5.40;86.10;;;;;;5055835;28;20017;-75
2022/04/02 08:25:56;;;;;;;7.63;2.75;;;5.20;87.20;;;;;;5055393;28;20032;-75
2022/04/02 08:28:54;;;;;;;7.53;2.83;;;5.30;87.70;;;;;;5055380;28;20088;-76
2022/04/02 08:31:27;;;;;;;4.05;2.47;;;5.30;87.00;;;;;;5037462;28;20051;-76
2022/04/02 08:34:45;;;;;;;5.30;2.60;;;5.50;87.70;;;;;;5054867;28;20041;-76
2022/04/02 08:37:37;;;;;;;8.25;2.78;;;5.90;85.80;;;;;;5030120;28;20025;-76
2022/04/02 08:40:33;;;;;;;8.05;2.60;;;6.00;84.90;;;;;;5052989;28;20029;-76
2022/04/02 08:43:19;;;;;;;3.97;2.50;;;6.00;84.80;;;;;;5055393;28;20036;-75
2022/04/02 08:46:11;;;;;;;7.22;2.50;;;6.10;85.40;;;;;;5054681;28;20090;-75
2022/04/02 08:48:40;;;;;;;7.22;3.05;;;6.40;84.10;;;;;;5044537;28;20039;-74
2022/04/02 08:51:25;;;;;;;7.38;2.97;;;6.50;83.80;;;;;;5055055;28;20029;-76
2022/04/02 08:54:04;;;;;;;6.30;2.67;;;6.80;82.90;;;;;;5055096;28;20043;-76
2022/04/02 08:56:34;;;;;;;5.93;2.40;;;6.80;80.10;;;;;;5055233;28;20031;-77
2022/04/02 08:59:05;;;;;;;6.20;2.63;;;6.60;79.30;;;;;;5054825;28;20424;-76
2022/04/02 09:01:42;;;;;;;5.43;2.38;;;6.40;80.10;;;;;;5054773;28;20567;-76
2022/04/02 09:04:33;;;;;;;3.88;2.35;;;6.30;80.30;;;;;;5055047;28;20025;-76
2022/04/02 09:07:04;;;;;;;5.72;2.15;;;6.40;80.40;;;;;;5054762;28;20082;-76
2022/04/02 09:10:02;;;;;;;5.15;2.35;;;6.50;82.30;;;;;;5054495;28;20047;-76
2022/04/02 09:12:27;;;;;;;4.18;2.15;;;6.80;82.50;;;;;;5054364;28;20395;-76
2022/04/02 09:15:13;;;;;;;5.53;2.47;;;6.90;78.50;;;;;;5054564;28;20044;-77
2022/04/02 09:17:48;;;;;;;3.75;1.98;;;6.80;77.80;;;;;;5054441;28;20036;-76
2022/04/02 09:20:36;;;;;;;6.10;2.58;;;6.80;78.10;;;;;;5054208;28;20120;-76
2022/04/02 09:23:17;;;;;;;6.90;2.55;;;6.90;78.30;;;;;;5046582;28;20035;-76
2022/04/02 09:26:15;;;;;;;5.80;2.40;;;6.70;77.10;;;;;;5040195;28;20056;-77
2022/04/02 09:28:42;;;;;;;3.20;2.03;;;6.40;77.60;;;;;;5054585;28;20052;-77
2022/04/02 09:31:26;;;;;;;3.53;2.47;;;6.40;77.20;;;;;;5054574;28;20056;-76
2022/04/02 09:34:20;;;;;;;3.60;2.40;;;6.10;78.50;;;;;;5054004;28;20095;-75
2022/04/02 09:36:59;;;;;;;6.53;2.22;;;6.00;78.20;;;;;;5048007;28;20387;-76
2022/04/02 09:39:36;;;;;;;2.97;2.20;;;6.00;78.50;;;;;;5054141;28;20037;-76
2022/04/02 09:42:36;;;;;;;6.70;2.40;;;6.00;77.90;;;;;;5054382;28;20024;-76
2022/04/02 09:45:12;;;;;;;4.72;2.42;;;6.00;78.40;;;;;;5053796;28;20044;-76
2022/04/02 09:48:05;;;;;;;3.78;2.00;;;6.20;78.50;;;;;;5053248;28;20041;-75
2022/04/02 09:50:31;;;;;;;5.00;2.20;;;6.40;77.60;;;;;;5051611;28;20025;-75
2022/04/02 09:53:13;;;;;;;4.30;1.73;;;6.70;76.70;;;;;;5053749;28;20037;-75
2022/04/02 09:56:01;;;;;;;6.00;2.13;;;6.90;75.30;;;;;;5052731;28;20094;-75
2022/04/02 09:59:03;;;;;;;5.40;1.95;;;6.90;70.80;;;;;;5052336;28;20642;-75
2022/04/02 10:01:39;;;;;;;4.93;1.65;;;6.70;71.20;;;;;;5053855;28;20032;-76
2022/04/02 10:04:17;;;;;;;2.38;1.48;;;6.70;71.70;;;;;;5053605;28;20473;-74
2022/04/02 10:06:48;;;;;;;4.07;1.15;;;6.70;70.10;;;;;;5053605;28;20052;-75
2022/04/02 10:09:15;;;;;;;3.53;1.45;;;6.60;66.60;;;;;;5052967;28;20640;-73
2022/04/02 10:11:41;;;;;;;4.03;1.70;;;6.60;65.70;;;;;;5052972;28;20392;-74
2022/04/02 10:14:07;;;;;;;3.63;1.17;;;6.50;64.50;;;;;;5053014;28;20037;-75
2022/04/02 10:16:33;;;;;;;2.35;1.08;;;6.40;66.00;;;;;;5052808;28;20029;-75
2022/04/02 10:19:00;;;;;;;3.70;1.20;;;6.50;67.30;;;;;;5053306;28;20021;-75
2022/04/02 10:21:29;;;;;;;4.57;1.20;;;6.60;67.00;;;;;;5053006;28;20033;-74
2022/04/02 10:24:24;;;;;;;3.95;1.13;;;6.60;64.90;;;;;;5052771;28;20033;-75
2022/04/02 10:26:55;;;;;;;2.55;1.23;;;6.40;65.40;;;;;;5052795;28;20051;-76
2022/04/02 10:29:46;;;;;;;4.40;1.00;;;6.20;64.00;;;;;;5053165;28;20111;-77
2022/04/02 10:32:34;;;;;;;4.55;1.00;;;6.20;64.60;;;;;;5053090;28;20036;-76
2022/04/02 10:35:06;;;;;;;3.30;0.93;;;6.30;64.80;;;;;;5052620;28;20140;-77
2022/04/02 10:37:43;;;;;;;1.87;0.83;;;6.40;63.70;;;;;;5053574;28;20033;-77
2022/04/02 10:40:16;;;;;;;1.60;0.80;;;6.70;65.10;;;;;;5052808;28;20103;-76
2022/04/02 10:42:51;;;;;;;2.67;0.90;;;7.10;64.90;;;;;;5033009;28;20034;-75
2022/04/02 10:45:19;;;;;;;2.65;0.80;;;7.20;61.10;;;;;;5052572;28;20078;-74
2022/04/02 10:48:03;;;;;;;2.92;1.13;;;7.30;62.30;;;;;;5052891;28;20427;-76
2022/04/02 10:50:30;;;;;;;4.88;0.98;;;7.30;60.00;;;;;;5052395;28;20044;-76
2022/04/02 10:52:58;;;;;;;2.35;0.82;;;7.10;58.60;;;;;;5052042;28;20033;-75
2022/04/02 10:55:28;;;;;;;6.38;1.00;;;7.00;58.80;;;;;;5051308;28;20045;-77
2022/04/02 10:57:56;;;;;;;3.08;0.80;;;7.00;59.80;;;;;;5051836;28;20032;-77
2022/04/02 11:00:28;;;;;;;2.80;0.60;;;6.90;58.40;;;;;;5051458;28;20033;-75
2022/04/02 11:03:05;;;;;;;3.05;0.60;;;6.90;60.40;;;;;;5052627;28;20025;-76
2022/04/02 11:05:36;;;;;;;1.42;0.70;;;7.00;60.80;;;;;;5052095;28;20043;-76
2022/04/02 11:08:10;;;;;;;4.22;1.00;;;7.10;60.10;;;;;;5052059;28;20033;-75
2022/04/02 11:10:35;;;;;;;2.83;1.40;;;7.20;59.00;;;;;;5050480;28;20421;-73
2022/04/02 11:13:04;;;;;;;3.40;0.98;;;7.10;58.90;;;;;;5052541;28;20029;-75
2022/04/02 11:15:38;;;;;;;3.95;0.93;;;7.10;60.30;;;;;;5050507;28;20388;-75
2022/04/02 11:18:04;;;;;;;2.30;1.52;;;7.00;62.20;;;;;;5052559;28;20032;-76
2022/04/02 11:20:31;;;;;;;5.07;1.27;;;7.10;63.90;;;;;;5052954;28;20384;-76
2022/04/02 11:23:10;;;;;;;2.95;0.77;;;7.20;61.10;;;;;;5052497;28;20029;-74
2022/04/02 11:25:39;;;;;;;1.88;0.93;;;7.00;62.70;;;;;;5037352;28;20064;-75
2022/04/02 11:28:05;;;;;;;4.70;0.73;;;7.20;63.20;;;;;;5052216;28;20040;-76
2022/04/02 11:30:33;;;;;;;3.40;1.25;;;7.30;60.50;;;;;;5052255;28;20021;-75
2022/04/02 11:33:18;;;;;;;3.13;0.82;;;7.30;60.50;;;;;;5052210;28;20033;-75
2022/04/02 11:35:58;;;;;;;2.20;0.63;;;7.20;58.70;;;;;;5052253;28;20040;-76
2022/04/02 11:38:40;;;;;;;2.75;0.80;;;7.20;60.50;;;;;;5052510;28;20032;-73
2022/04/02 11:41:17;;;;;;;2.42;0.52;;;7.40;57.90;;;;;;5052352;28;20037;-77
2022/04/02 11:43:48;;;;;;;2.38;0.93;;;7.30;57.90;;;;;;5051874;28;20021;-75
2022/04/02 11:46:18;;;;;;;2.75;0.90;;;7.40;59.70;;;;;;5052532;28;20079;-78
2022/04/02 11:48:55;;;;;;;5.25;0.75;;;7.50;58.50;;;;;;5052483;28;20025;-75
2022/04/02 11:51:33;;;;;;;2.15;0.50;;;7.50;57.60;;;;;;5052561;28;20047;-74
2022/04/02 11:54:10;;;;;;;3.70;1.33;;;7.40;58.30;;;;;;5051504;28;20048;-76
2022/04/02 11:56:43;;;;;;;57.28;7.03;;;7.30;59.70;;;;;;5051879;28;20052;-75
2022/04/02 11:59:09;;;;;;;;;;;7.40;59.00;;;;;;5053261;28;20033;-74
2022/04/02 12:01:49;;;;;;;2.90;0.80;;;7.50;59.60;;;;;;5052327;28;19909;-75
2022/04/02 12:04:17;;;;;;;3.30;0.95;;;7.60;60.30;;;;;;5052068;28;20048;-75
2022/04/02 12:06:47;;;;;;;3.97;0.90;;;7.60;59.60;;;;;;5051734;28;20033;-75
2022/04/02 12:09:21;;;;;;;2.65;0.60;;;7.50;59.90;;;;;;5044439;28;20484;-74
2022/04/02 12:11:53;;;;;;;1.58;0.65;;;7.50;60.40;;;;;;5055799;28;20504;-74
2022/04/02 12:14:39;;;;;;;5.82;0.90;;;7.50;60.90;;;;;;5055825;28;20116;-74
2022/04/02 12:17:11;;;;;;;4.25;0.95;;;7.50;61.50;;;;;;5055548;28;20468;-73
2022/04/02 12:19:38;;;;;;;4.25;0.93;;;7.50;62.20;;;;;;5055907;28;20436;-75
2022/04/02 12:22:27;;;;;;;4.47;1.10;;;7.50;62.20;;;;;;5055684;28;20029;-74
2022/04/02 12:25:01;;;;;;;3.72;0.90;;;7.40;63.30;;;;;;5055466;28;20029;-75
2022/04/02 12:27:30;;;;;;;2.45;1.05;;;7.40;63.40;;;;;;5055201;28;20053;-75
2022/04/02 12:29:57;;;;;;;4.60;0.90;;;7.30;64.90;;;;;;5055324;28;20021;-75
2022/04/02 12:32:35;;;;;;;3.05;0.82;;;7.20;63.60;;;;;;5055396;28;20476;-75
2022/04/02 12:35:05;;;;;;;2.75;0.70;;;7.20;64.00;;;;;;5053523;28;20056;-76
2022/04/02 12:37:52;;;;;;;4.75;1.10;;;7.10;64.10;;;;;;5055281;28;20071;-77
2022/04/02 12:40:23;;;;;;;3.58;0.80;;;7.10;64.90;;;;;;5054375;28;20064;-79
2022/04/02 12:42:54;;;;;;;2.47;0.90;;;7.10;64.20;;;;;;5055739;28;20088;-79
2022/04/02 12:45:24;;;;;;;1.45;0.50;;;7.10;65.30;;;;;;5054740;28;20091;-76
2022/04/02 12:48:20;;;;;;;2.03;0.73;;;7.10;65.60;;;;;;5055100;28;20029;-76
2022/04/02 12:50:58;;;;;;;5.00;1.27;;;7.10;65.70;;;;;;5040346;28;20060;-77
2022/04/02 12:53:32;;;;;;;2.45;1.05;;;7.10;66.30;;;;;;5054656;28;20071;-76
2022/04/02 12:56:00;;;;;;;1.92;0.75;;;7.20;68.50;;;;;;5054427;28;20357;-77
2022/04/02 12:58:39;;;;;;;4.90;1.00;;;7.20;66.60;;;;;;5054583;28;20054;-78
2022/04/02 13:01:09;;;;;;;2.22;0.77;;;7.10;67.80;;;;;;5054800;28;20060;-79
2022/04/02 13:03:42;;;;;;;4.80;0.82;;;7.10;67.10;;;;;;5054009;28;20029;-79
2022/04/02 13:06:16;;;;;;;2.38;0.65;;;7.00;67.10;;;;;;5055045;28;20117;-78
2022/04/02 13:08:52;;;;;;;;;;;7.20;67.40;;;;;;5055356;28;20104;-78
2022/04/02 13:11:32;;;;;;;2.00;0.75;;;7.50;65.70;;;;;;5054642;28;19970;-79
2022/04/02 13:14:19;;;;;;;3.88;0.60;;;7.90;65.10;;;;;;5054896;28;20435;-78
2022/04/02 13:16:47;;;;;;;3.28;0.85;;;8.20;60.50;;;;;;5054581;28;20494;-79